Check out our new PWSWeather beta!
PWSweather.com
Personal Weather Stations
Station Observations

ThornlieThornlieAU 6108

Lat: -32.055186, Lon: 115.956744

Elevation: 70

Station Type: Davis Vantage Pro 2

http://members.iinet.net.au/~nossis/weather/index.htm

High Low Average
Temperature 88.2°F31.2°C 70.3°F21.3°C 78.0°F25.6°C
Dew Point 72.1°F22.3°C 59.4°F15.2°C 64.1°F17.8°C
Winds 9.0 mph 14.5 kmh 2.0 mph 3.2 kmh 4.0 mph ESE6.4 kmh ESE
Wind Gusts 22.0 mph35.4 kmh 5.0 mph8.0 kmh 12.0 mph19.3 kmh
Humidity 89% 48% 63%
Pressure 29.91 in1012.9 mb 29.80 in1009.1 mb -
Precipitation 0.31 in7.9 mm - -
Hour Temp Dew Point Humidity Winds Wind Gusts Pressure Precip Precip Rate Daily Precip Total
12:00 AM 75.4°F24.1°C 60.4°F15.8°C 60% 7.0 mph ESE11.3 kmh ESE 22.0 mph35.4 kmh 29.88 in1011.9 mb 0.00 in0.0 mm 0.00 in0.0 mm 0.00 in0.0 mm
12:15 AM 74.8°F23.8°C 60.4°F15.8°C 61% 4.0 mph ESE6.4 kmh ESE 12.0 mph19.3 kmh 29.88 in1011.9 mb 0.00 in0.0 mm 0.00 in0.0 mm 0.00 in0.0 mm
12:30 AM 74.1°F23.4°C 60.3°F15.7°C 62% 3.0 mph ESE4.8 kmh ESE 11.0 mph17.7 kmh 29.88 in1011.9 mb 0.00 in0.0 mm 0.00 in0.0 mm 0.00 in0.0 mm
12:45 AM 73.8°F23.2°C 60.3°F15.7°C 63% 3.0 mph SE4.8 kmh SE 8.0 mph12.9 kmh 29.88 in1011.9 mb 0.00 in0.0 mm 0.00 in0.0 mm 0.00 in0.0 mm
01:00 AM 73.2°F22.9°C 59.9°F15.5°C 63% 3.0 mph ESE4.8 kmh ESE 15.0 mph24.1 kmh 29.88 in1011.9 mb 0.00 in0.0 mm 0.00 in0.0 mm 0.00 in0.0 mm
01:15 AM 72.9°F22.7°C 59.5°F15.3°C 63% 3.0 mph E4.8 kmh E 10.0 mph16.1 kmh 29.88 in1011.9 mb 0.00 in0.0 mm 0.00 in0.0 mm 0.00 in0.0 mm
01:30 AM 72.7°F22.6°C 59.4°F15.2°C 63% 2.0 mph SE3.2 kmh SE 7.0 mph11.3 kmh 29.88 in1011.9 mb 0.00 in0.0 mm 0.00 in0.0 mm 0.00 in0.0 mm
01:45 AM 72.1°F22.3°C 59.4°F15.2°C 64% 4.0 mph E6.4 kmh E 11.0 mph17.7 kmh 29.88 in1011.9 mb 0.00 in0.0 mm 0.00 in0.0 mm 0.00 in0.0 mm
02:00 AM 72.0°F22.2°C 59.5°F15.3°C 65% 3.0 mph SE4.8 kmh SE 10.0 mph16.1 kmh 29.88 in1011.9 mb 0.00 in0.0 mm 0.00 in0.0 mm 0.00 in0.0 mm
02:15 AM 71.8°F22.1°C 59.7°F15.4°C 66% 3.0 mph E4.8 kmh E 12.0 mph19.3 kmh 29.89 in1012.2 mb 0.00 in0.0 mm 0.00 in0.0 mm 0.00 in0.0 mm
02:30 AM 71.2°F21.8°C 59.7°F15.4°C 67% 2.0 mph NE3.2 kmh NE 8.0 mph12.9 kmh 29.88 in1011.9 mb 0.00 in0.0 mm 0.00 in0.0 mm 0.00 in0.0 mm
02:45 AM 71.1°F21.7°C 59.9°F15.5°C 68% 2.0 mph E3.2 kmh E 8.0 mph12.9 kmh 29.89 in1012.2 mb 0.00 in0.0 mm 0.00 in0.0 mm 0.00 in0.0 mm
03:00 AM 70.7°F21.5°C 59.5°F15.3°C 68% 3.0 mph ESE4.8 kmh ESE 15.0 mph24.1 kmh 29.88 in1011.9 mb 0.00 in0.0 mm 0.00 in0.0 mm 0.00 in0.0 mm
03:15 AM 70.5°F21.4°C 59.9°F15.5°C 69% 3.0 mph E4.8 kmh E 10.0 mph16.1 kmh 29.88 in1011.9 mb 0.00 in0.0 mm 0.00 in0.0 mm 0.00 in0.0 mm
03:30 AM 70.3°F21.3°C 60.1°F15.6°C 70% 6.0 mph E9.7 kmh E 15.0 mph24.1 kmh 29.88 in1011.9 mb 0.00 in0.0 mm 0.00 in0.0 mm 0.00 in0.0 mm
03:45 AM 70.3°F21.3°C 60.1°F15.6°C 70% 6.0 mph E9.7 kmh E 12.0 mph19.3 kmh 29.87 in1011.5 mb 0.00 in0.0 mm 0.00 in0.0 mm 0.00 in0.0 mm
04:00 AM 70.3°F21.3°C 60.1°F15.6°C 70% 6.0 mph E9.7 kmh E 14.0 mph22.5 kmh 29.87 in1011.5 mb 0.00 in0.0 mm 0.00 in0.0 mm 0.00 in0.0 mm
04:15 AM 70.3°F21.3°C 60.1°F15.6°C 70% 5.0 mph E8.0 kmh E 19.0 mph30.6 kmh 29.87 in1011.5 mb 0.00 in0.0 mm 0.00 in0.0 mm 0.00 in0.0 mm
04:30 AM 70.3°F21.3°C 60.6°F15.9°C 71% 5.0 mph ESE8.0 kmh ESE 17.0 mph27.4 kmh 29.87 in1011.5 mb 0.00 in0.0 mm 0.00 in0.0 mm 0.00 in0.0 mm
04:45 AM 70.3°F21.3°C 60.6°F15.9°C 71% 5.0 mph ESE8.0 kmh ESE 15.0 mph24.1 kmh 29.87 in1011.5 mb 0.00 in0.0 mm 0.00 in0.0 mm 0.00 in0.0 mm
05:00 AM 70.5°F21.4°C 60.6°F15.9°C 71% 4.0 mph E6.4 kmh E 13.0 mph20.9 kmh 29.88 in1011.9 mb 0.00 in0.0 mm 0.00 in0.0 mm 0.00 in0.0 mm
05:15 AM 70.7°F21.5°C 60.8°F16.0°C 71% 5.0 mph E8.0 kmh E 14.0 mph22.5 kmh 29.88 in1011.9 mb 0.00 in0.0 mm 0.00 in0.0 mm 0.00 in0.0 mm
05:30 AM 70.5°F21.4°C 60.8°F16.0°C 71% 5.0 mph E8.0 kmh E 17.0 mph27.4 kmh 29.87 in1011.5 mb 0.00 in0.0 mm 0.00 in0.0 mm 0.00 in0.0 mm
05:45 AM 70.5°F21.4°C 60.8°F16.0°C 71% 5.0 mph E8.0 kmh E 12.0 mph19.3 kmh 29.88 in1011.9 mb 0.00 in0.0 mm 0.00 in0.0 mm 0.00 in0.0 mm
06:00 AM 70.7°F21.5°C 60.8°F16.0°C 71% 6.0 mph E9.7 kmh E 17.0 mph27.4 kmh 29.89 in1012.2 mb 0.00 in0.0 mm 0.00 in0.0 mm 0.00 in0.0 mm
06:15 AM 70.9°F21.6°C 61.0°F16.1°C 71% 5.0 mph E8.0 kmh E 13.0 mph20.9 kmh 29.89 in1012.2 mb 0.00 in0.0 mm 0.00 in0.0 mm 0.00 in0.0 mm
06:30 AM 71.1°F21.7°C 61.2°F16.2°C 71% 6.0 mph E9.7 kmh E 15.0 mph24.1 kmh 29.89 in1012.2 mb 0.00 in0.0 mm 0.00 in0.0 mm 0.00 in0.0 mm
06:45 AM 71.2°F21.8°C 61.3°F16.3°C 71% 6.0 mph E9.7 kmh E 18.0 mph29.0 kmh 29.90 in1012.5 mb 0.00 in0.0 mm 0.00 in0.0 mm 0.00 in0.0 mm
07:00 AM 71.8°F22.1°C 61.3°F16.3°C 70% 4.0 mph ESE6.4 kmh ESE 12.0 mph19.3 kmh 29.90 in1012.5 mb 0.00 in0.0 mm 0.00 in0.0 mm 0.00 in0.0 mm
07:15 AM 72.3°F22.4°C 61.7°F16.5°C 69% 7.0 mph E11.3 kmh E 21.0 mph33.8 kmh 29.89 in1012.2 mb 0.00 in0.0 mm 0.00 in0.0 mm 0.00 in0.0 mm
07:30 AM 73.2°F22.9°C 62.1°F16.7°C 68% 7.0 mph E11.3 kmh E 19.0 mph30.6 kmh 29.90 in1012.5 mb 0.00 in0.0 mm 0.00 in0.0 mm 0.00 in0.0 mm
07:45 AM 73.8°F23.2°C 62.2°F16.8°C 67% 4.0 mph E6.4 kmh E 12.0 mph19.3 kmh 29.91 in1012.9 mb 0.00 in0.0 mm 0.00 in0.0 mm 0.00 in0.0 mm
08:00 AM 73.9°F23.3°C 62.8°F17.1°C 68% 4.0 mph E6.4 kmh E 10.0 mph16.1 kmh 29.91 in1012.9 mb 0.00 in0.0 mm 0.00 in0.0 mm 0.00 in0.0 mm
08:15 AM 75.6°F24.2°C 63.0°F17.2°C 65% 5.0 mph E8.0 kmh E 11.0 mph17.7 kmh 29.91 in1012.9 mb 0.00 in0.0 mm 0.00 in0.0 mm 0.00 in0.0 mm
08:30 AM 76.6°F24.8°C 63.1°F17.3°C 63% 6.0 mph ENE9.7 kmh ENE 16.0 mph25.7 kmh 29.91 in1012.9 mb 0.00 in0.0 mm 0.00 in0.0 mm 0.00 in0.0 mm
08:45 AM 78.1°F25.6°C 64.4°F18.0°C 63% 5.0 mph E8.0 kmh E 13.0 mph20.9 kmh 29.91 in1012.9 mb 0.00 in0.0 mm 0.00 in0.0 mm 0.00 in0.0 mm
09:00 AM 78.6°F25.9°C 64.0°F17.8°C 61% 6.0 mph E9.7 kmh E 15.0 mph24.1 kmh 29.91 in1012.9 mb 0.00 in0.0 mm 0.00 in0.0 mm 0.00 in0.0 mm
09:15 AM 78.1°F25.6°C 64.4°F18.0°C 63% 9.0 mph E14.5 kmh E 18.0 mph29.0 kmh 29.90 in1012.5 mb 0.00 in0.0 mm 0.00 in0.0 mm 0.00 in0.0 mm
09:30 AM 79.3°F26.3°C 64.2°F17.9°C 60% 7.0 mph E11.3 kmh E 17.0 mph27.4 kmh 29.90 in1012.5 mb 0.00 in0.0 mm 0.00 in0.0 mm 0.00 in0.0 mm
09:45 AM 81.0°F27.2°C 64.8°F18.2°C 58% 4.0 mph E6.4 kmh E 14.0 mph22.5 kmh 29.91 in1012.9 mb 0.00 in0.0 mm 0.00 in0.0 mm 0.00 in0.0 mm
10:00 AM 80.4°F26.9°C 64.8°F18.2°C 59% 5.0 mph E8.0 kmh E 12.0 mph19.3 kmh 29.90 in1012.5 mb 0.00 in0.0 mm 0.00 in0.0 mm 0.00 in0.0 mm
10:15 AM 81.9°F27.7°C 65.7°F18.7°C 58% 7.0 mph ENE11.3 kmh ENE 17.0 mph27.4 kmh 29.90 in1012.5 mb 0.00 in0.0 mm 0.00 in0.0 mm 0.00 in0.0 mm
10:30 AM 82.8°F28.2°C 65.5°F18.6°C 56% 5.0 mph E8.0 kmh E 12.0 mph19.3 kmh 29.89 in1012.2 mb 0.00 in0.0 mm 0.00 in0.0 mm 0.00 in0.0 mm
10:45 AM 83.1°F28.4°C 65.3°F18.5°C 55% 7.0 mph E11.3 kmh E 16.0 mph25.7 kmh 29.89 in1012.2 mb 0.00 in0.0 mm 0.00 in0.0 mm 0.00 in0.0 mm
11:00 AM 84.0°F28.9°C 65.1°F18.4°C 53% 7.0 mph E11.3 kmh E 13.0 mph20.9 kmh 29.88 in1011.9 mb 0.00 in0.0 mm 0.00 in0.0 mm 0.00 in0.0 mm
11:15 AM 84.4°F29.1°C 66.0°F18.9°C 54% 5.0 mph E8.0 kmh E 15.0 mph24.1 kmh 29.88 in1011.9 mb 0.00 in0.0 mm 0.00 in0.0 mm 0.00 in0.0 mm
11:30 AM 85.5°F29.7°C 65.8°F18.8°C 52% 6.0 mph E9.7 kmh E 14.0 mph22.5 kmh 29.88 in1011.9 mb 0.00 in0.0 mm 0.00 in0.0 mm 0.00 in0.0 mm
11:45 AM 83.8°F28.8°C 64.9°F18.3°C 53% 6.0 mph ENE9.7 kmh ENE 12.0 mph19.3 kmh 29.88 in1011.9 mb 0.00 in0.0 mm 0.00 in0.0 mm 0.00 in0.0 mm
12:00 PM 82.0°F27.8°C 65.8°F18.8°C 58% 5.0 mph E8.0 kmh E 14.0 mph22.5 kmh 29.88 in1011.9 mb 0.00 in0.0 mm 0.00 in0.0 mm 0.00 in0.0 mm
12:15 PM 78.3°F25.7°C 68.9°F20.5°C 73% 3.0 mph ESE4.8 kmh ESE 8.0 mph12.9 kmh 29.89 in1012.2 mb 0.17 in4.3 mm 0.68 in17.3 mm 0.17 in4.3 mm
12:30 PM 73.9°F23.3°C 68.9°F20.5°C 84% 4.0 mph SE6.4 kmh SE 12.0 mph19.3 kmh 29.87 in1011.5 mb 0.31 in7.9 mm 0.56 in14.2 mm 0.31 in7.9 mm
12:45 PM 75.7°F24.3°C 72.1°F22.3°C 89% 2.0 mph S3.2 kmh S 6.0 mph9.7 kmh 29.86 in1011.2 mb 0.31 in7.9 mm 0.00 in0.0 mm 0.31 in7.9 mm
01:00 PM 77.5°F25.3°C 70.9°F21.6°C 80% 3.0 mph SSE4.8 kmh SSE 9.0 mph14.5 kmh 29.86 in1011.2 mb 0.31 in7.9 mm 0.00 in0.0 mm 0.31 in7.9 mm
01:15 PM 78.6°F25.9°C 69.6°F20.9°C 74% 3.0 mph SSE4.8 kmh SSE 9.0 mph14.5 kmh 29.86 in1011.2 mb 0.11 in2.8 mm 0.00 in0.0 mm 0.31 in7.9 mm
01:30 PM 80.8°F27.1°C 70.3°F21.3°C 71% 3.0 mph SE4.8 kmh SE 9.0 mph14.5 kmh 29.86 in1011.2 mb 0.00 in0.0 mm 0.00 in0.0 mm 0.31 in7.9 mm
01:45 PM 82.6°F28.1°C 67.6°F19.8°C 61% 3.0 mph SE4.8 kmh SE 9.0 mph14.5 kmh 29.85 in1010.8 mb 0.00 in0.0 mm 0.00 in0.0 mm 0.31 in7.9 mm
02:00 PM 84.9°F29.4°C 68.0°F20.0°C 57% 3.0 mph ESE4.8 kmh ESE 10.0 mph16.1 kmh 29.84 in1010.5 mb 0.00 in0.0 mm 0.00 in0.0 mm 0.31 in7.9 mm
02:15 PM 86.9°F30.5°C 67.6°F19.8°C 53% 4.0 mph SE6.4 kmh SE 13.0 mph20.9 kmh 29.84 in1010.5 mb 0.00 in0.0 mm 0.00 in0.0 mm 0.31 in7.9 mm
02:30 PM 87.6°F30.9°C 67.8°F19.9°C 52% 3.0 mph E4.8 kmh E 8.0 mph12.9 kmh 29.83 in1010.2 mb 0.00 in0.0 mm 0.00 in0.0 mm 0.31 in7.9 mm
02:45 PM 87.8°F31.0°C 69.1°F20.6°C 54% 4.0 mph SE6.4 kmh SE 12.0 mph19.3 kmh 29.82 in1009.8 mb 0.00 in0.0 mm 0.00 in0.0 mm 0.31 in7.9 mm
03:00 PM 87.3°F30.7°C 68.5°F20.3°C 54% 4.0 mph SSE6.4 kmh SSE 12.0 mph19.3 kmh 29.83 in1010.2 mb 0.00 in0.0 mm 0.00 in0.0 mm 0.31 in7.9 mm
03:15 PM 86.5°F30.3°C 68.0°F20.0°C 54% 4.0 mph SSE6.4 kmh SSE 13.0 mph20.9 kmh 29.83 in1010.2 mb 0.00 in0.0 mm 0.00 in0.0 mm 0.31 in7.9 mm
03:30 PM 86.5°F30.3°C 68.5°F20.3°C 55% 5.0 mph SSE8.0 kmh SSE 12.0 mph19.3 kmh 29.82 in1009.8 mb 0.00 in0.0 mm 0.00 in0.0 mm 0.31 in7.9 mm
03:45 PM 86.7°F30.4°C 68.0°F20.0°C 54% 3.0 mph S4.8 kmh S 12.0 mph19.3 kmh 29.83 in1010.2 mb 0.00 in0.0 mm 0.00 in0.0 mm 0.31 in7.9 mm
04:00 PM 86.4°F30.2°C 66.2°F19.0°C 51% 3.0 mph ESE4.8 kmh ESE 10.0 mph16.1 kmh 29.82 in1009.8 mb 0.00 in0.0 mm 0.00 in0.0 mm 0.31 in7.9 mm
04:15 PM 86.7°F30.4°C 67.1°F19.5°C 52% 4.0 mph ESE6.4 kmh ESE 14.0 mph22.5 kmh 29.82 in1009.8 mb 0.00 in0.0 mm 0.00 in0.0 mm 0.31 in7.9 mm
04:30 PM 87.6°F30.9°C 66.2°F19.0°C 49% 6.0 mph E9.7 kmh E 13.0 mph20.9 kmh 29.81 in1009.5 mb 0.00 in0.0 mm 0.00 in0.0 mm 0.31 in7.9 mm
04:45 PM 88.0°F31.1°C 66.4°F19.1°C 49% 5.0 mph SE8.0 kmh SE 15.0 mph24.1 kmh 29.81 in1009.5 mb 0.00 in0.0 mm 0.00 in0.0 mm 0.31 in7.9 mm
05:00 PM 88.2°F31.2°C 66.0°F18.9°C 48% 6.0 mph SE9.7 kmh SE 12.0 mph19.3 kmh 29.80 in1009.1 mb 0.00 in0.0 mm 0.00 in0.0 mm 0.31 in7.9 mm
05:15 PM 88.0°F31.1°C 65.8°F18.8°C 48% 5.0 mph SE8.0 kmh SE 13.0 mph20.9 kmh 29.80 in1009.1 mb 0.00 in0.0 mm 0.00 in0.0 mm 0.31 in7.9 mm
05:30 PM 87.6°F30.9°C 66.2°F19.0°C 49% 4.0 mph SE6.4 kmh SE 12.0 mph19.3 kmh 29.80 in1009.1 mb 0.00 in0.0 mm 0.00 in0.0 mm 0.31 in7.9 mm
05:45 PM 87.3°F30.7°C 66.4°F19.1°C 50% 5.0 mph SE8.0 kmh SE 13.0 mph20.9 kmh 29.82 in1009.8 mb 0.00 in0.0 mm 0.00 in0.0 mm 0.31 in7.9 mm
06:00 PM 85.8°F29.9°C 66.2°F19.0°C 52% 5.0 mph SE8.0 kmh SE 17.0 mph27.4 kmh 29.82 in1009.8 mb 0.00 in0.0 mm 0.00 in0.0 mm 0.31 in7.9 mm
06:15 PM 85.3°F29.6°C 66.2°F19.0°C 53% 3.0 mph ESE4.8 kmh ESE 9.0 mph14.5 kmh 29.83 in1010.2 mb 0.00 in0.0 mm 0.00 in0.0 mm 0.31 in7.9 mm
06:30 PM 84.6°F29.2°C 65.5°F18.6°C 53% 4.0 mph E6.4 kmh E 12.0 mph19.3 kmh 29.82 in1009.8 mb 0.00 in0.0 mm 0.00 in0.0 mm 0.31 in7.9 mm
06:45 PM 83.7°F28.7°C 65.1°F18.4°C 54% 5.0 mph E8.0 kmh E 12.0 mph19.3 kmh 29.82 in1009.8 mb 0.00 in0.0 mm 0.00 in0.0 mm 0.31 in7.9 mm
07:00 PM 82.2°F27.9°C 65.1°F18.4°C 56% 5.0 mph E8.0 kmh E 17.0 mph27.4 kmh 29.83 in1010.2 mb 0.00 in0.0 mm 0.00 in0.0 mm 0.31 in7.9 mm
07:15 PM 81.1°F27.3°C 64.9°F18.3°C 58% 5.0 mph SE8.0 kmh SE 12.0 mph19.3 kmh 29.84 in1010.5 mb 0.00 in0.0 mm 0.00 in0.0 mm 0.31 in7.9 mm
07:30 PM 80.4°F26.9°C 64.9°F18.3°C 59% 3.0 mph SE4.8 kmh SE 8.0 mph12.9 kmh 29.84 in1010.5 mb 0.00 in0.0 mm 0.00 in0.0 mm 0.31 in7.9 mm
07:45 PM 80.1°F26.7°C 64.9°F18.3°C 60% 3.0 mph SE4.8 kmh SE 9.0 mph14.5 kmh 29.85 in1010.8 mb 0.00 in0.0 mm 0.00 in0.0 mm 0.31 in7.9 mm
08:00 PM 79.3°F26.3°C 64.8°F18.2°C 61% 2.0 mph SE3.2 kmh SE 9.0 mph14.5 kmh 29.85 in1010.8 mb 0.00 in0.0 mm 0.00 in0.0 mm 0.31 in7.9 mm
08:15 PM 79.2°F26.2°C 64.6°F18.1°C 61% 4.0 mph E6.4 kmh E 9.0 mph14.5 kmh 29.86 in1011.2 mb 0.00 in0.0 mm 0.00 in0.0 mm 0.31 in7.9 mm
08:30 PM 78.6°F25.9°C 64.0°F17.8°C 61% 3.0 mph SE4.8 kmh SE 7.0 mph11.3 kmh 29.86 in1011.2 mb 0.00 in0.0 mm 0.00 in0.0 mm 0.31 in7.9 mm
08:45 PM 78.1°F25.6°C 64.0°F17.8°C 62% 3.0 mph E4.8 kmh E 11.0 mph17.7 kmh 29.87 in1011.5 mb 0.00 in0.0 mm 0.00 in0.0 mm 0.31 in7.9 mm
09:00 PM 77.7°F25.4°C 64.2°F17.9°C 63% 2.0 mph SE3.2 kmh SE 9.0 mph14.5 kmh 29.87 in1011.5 mb 0.00 in0.0 mm 0.00 in0.0 mm 0.31 in7.9 mm
09:15 PM 77.4°F25.2°C 64.2°F17.9°C 64% 2.0 mph ESE3.2 kmh ESE 5.0 mph8.0 kmh 29.88 in1011.9 mb 0.00 in0.0 mm 0.00 in0.0 mm 0.31 in7.9 mm
09:30 PM 77.0°F25.0°C 64.4°F18.0°C 65% 3.0 mph SE4.8 kmh SE 12.0 mph19.3 kmh 29.88 in1011.9 mb 0.00 in0.0 mm 0.00 in0.0 mm 0.31 in7.9 mm
09:45 PM 76.6°F24.8°C 64.4°F18.0°C 66% 2.0 mph ESE3.2 kmh ESE 8.0 mph12.9 kmh 29.88 in1011.9 mb 0.00 in0.0 mm 0.00 in0.0 mm 0.31 in7.9 mm
10:00 PM 76.1°F24.5°C 64.8°F18.2°C 68% 3.0 mph SE4.8 kmh SE 7.0 mph11.3 kmh 29.88 in1011.9 mb 0.00 in0.0 mm 0.00 in0.0 mm 0.31 in7.9 mm
10:15 PM 75.6°F24.2°C 64.2°F17.9°C 68% 4.0 mph SE6.4 kmh SE 13.0 mph20.9 kmh 29.89 in1012.2 mb 0.00 in0.0 mm 0.00 in0.0 mm 0.31 in7.9 mm
10:30 PM 75.4°F24.1°C 64.4°F18.0°C 69% 5.0 mph ESE8.0 kmh ESE 14.0 mph22.5 kmh 29.88 in1011.9 mb 0.00 in0.0 mm 0.00 in0.0 mm 0.31 in7.9 mm
10:45 PM 74.8°F23.8°C 64.4°F18.0°C 70% 5.0 mph ESE8.0 kmh ESE 12.0 mph19.3 kmh 29.88 in1011.9 mb 0.00 in0.0 mm 0.00 in0.0 mm 0.31 in7.9 mm
11:00 PM 74.5°F23.6°C 64.4°F18.0°C 71% 4.0 mph E6.4 kmh E 11.0 mph17.7 kmh 29.88 in1011.9 mb 0.00 in0.0 mm 0.00 in0.0 mm 0.31 in7.9 mm
11:15 PM 73.9°F23.3°C 64.0°F17.8°C 71% 3.0 mph E4.8 kmh E 10.0 mph16.1 kmh 29.89 in1012.2 mb 0.00 in0.0 mm 0.00 in0.0 mm 0.31 in7.9 mm
11:30 PM 73.8°F23.2°C 64.0°F17.8°C 72% 6.0 mph E9.7 kmh E 12.0 mph19.3 kmh 29.89 in1012.2 mb 0.00 in0.0 mm 0.00 in0.0 mm 0.31 in7.9 mm
11:45 PM 73.4°F23.0°C 64.2°F17.9°C 73% 5.0 mph ESE8.0 kmh ESE 11.0 mph17.7 kmh 29.89 in1012.2 mb 0.00 in0.0 mm 0.00 in0.0 mm 0.31 in7.9 mm